Skip Navigation Links
NOAA logo - Click to go to the NOAA homepage
NOAA's National Weather Service
Alaska Aviation Weather Unit
  NWS logo - Click to go to the NWS homepage
Left Navbar Graphic     10 AKDT = 18 GMT

   
NOAA is celebrating 200 years of science, service, and stewardship. Visit the NOAA 200th celebration Web site to learn more.
USA.gov is the U.S. Government's official Web portal to all Federal, state and local government Web resources and services.
Facebook
NWS on Facebook

Important Change Regarding the AAWU Web Presence

 

Over the last several months, the AAWU has been working to navigate its webpages to a nationally supported server. Security, as well as other needs, have necessitated the change.  We have been given an extension for the site changeover while we diligently work at addressing feedback received. As of July 14, 2017, aawu.arh.noaa.gov will be discontinued. The new AAWU web address is weather.gov/aawu. It is now live and will run in-parallel with the old site until it is discontinued on July 14, 2017. Please continue to send any feedback or questions regarding the new webpages to nws.ar.aawu.webauthors@noaa.gov.  Thank you for your patience during this time of transition.
AAWU Home :: Display TAF Add Bookmark
TAF PAED 101900Z 1019/1201 VRB06KT 9000 -SHRA FEW010 OVC070
      QNH2993INS
      BECMG 1020/1021 VRB06KT 9999 VCSH SCT050 BKN070 QNH2986INS
      BECMG 1102/1103 VRB06KT 9999 NSW SCT040 BKN120 QNH2964INS
      TX18/1100Z TN12/1112Z=
METAR PAED 261256Z 00000KT 10SM FEW005 SCT050 BKN070 05/05 A2974=

METAR PAED 261356Z 00000KT 10SM FEW005 SCT050 04/04 A2973=

PAED 261424Z 00000KT 10SM SCT004 BKN050 04/04 A2972=

PAED 261428Z 00000KT 10SM FEW002 BKN004 BKN050 04/04 A2972=

PAED 261436Z 00000KT 3SM BR BKN002 BKN004 04/04 A2972=

PAED 261438Z 33006KT 1SM BR BKN002 BKN004 04/04 A2972=

PAED 261442Z 33007KT 1/2SM FG VV002 05/05 A2972=

PAED 261446Z 33008KT 3/8SM R06/1000V1800FT FG VV003 05/05 A2972=

METAR PAED 261456Z 33008KT 3/8SM R06/1000V1400FT FG VV003 05/05
     A2971=

PAED 261506Z AUTO 00000KT 3/8SM R06/1200V1400FT FG VV001 05/05
A2972=

PAED 261528Z 36003KT 1/4SM R06/1000V1200FT FG VV001 05/05 A2972=

PAED 261546Z 36005KT 1/8SM R06/0900V1000FT FG VV001 04/04 A2972=

METAR PAED 261556Z 01004KT M1/8SM R06/0600V0800FT FG VV001 04/04
     A2971=

PAED 261626Z 00000KT 1/8SM R06/1000V1200FT FG VV001 05/05 A2971=

PAED 261641Z 04005KT 1/8SM R06/0700V1000FT FG VV001 04/04 A2971=

METAR PAED 261656Z 05004KT 1/8SM R06/0600FT FG VV001 04/04 A2971=

PAED 261731Z 00000KT 1/4SM R06/1000V1400FT FG VV001 04/04 A2970=

PAED 261746Z 04003KT 3/8SM R06/1800VP6000FT BR VV003 05/05 A2970=

METAR PAED 261756Z 01003KT 1/2SM FG OVC003 05/05 A2969=

PAED 261816Z 01005KT 3/4SM BR OVC004 05/05 A2969=


NOAA's National Weather Service
Alaska Aviation Weather Unit
6930 Sand Lake Road
Anchorage, AK 99502-1845
Disclaimer
Credits
Glossary
Privacy Policy
About Us
Career Opportunities
Contact AAWU Internet Services Site last modified: April, 17th 2012